Time;durP1;ratioP1;P1;durP2;ratioP2;P2;SDS_P1;SDS_P2;PMS_P1;PMS_P2;Temp;Humidity;BMP_temperature;BMP_pressure;BME280_temperature;BME280_humidity;BME280_pressure;Samples;Min_cycle;Max_cycle;Signal;HPM_P1;HPM_P2
2023/06/02 00:01:36;;;;;;;13.40;7.00;;;;;;;23.48;35.09;99630.48;108063;1253;72464;-67
2023/06/02 00:04:04;;;;;;;16.00;7.70;;;;;;;23.49;35.00;99634.06;108047;1254;62073;-67
2023/06/02 00:06:37;;;;;;;13.50;7.20;;;;;;;23.74;34.75;99629.53;108040;1254;60344;-67
2023/06/02 00:09:05;;;;;;;13.10;7.20;;;;;;;23.59;34.91;99633.14;108037;1253;73773;-69
2023/06/02 00:11:34;;;;;;;18.00;7.70;;;;;;;23.92;34.63;99632.23;108053;1254;70140;-67
2023/06/02 00:14:04;;;;;;;14.80;7.40;;;;;;;24.28;34.06;99622.89;108065;1253;72208;-68
2023/06/02 00:16:43;;;;;;;16.40;7.50;;;;;;;24.31;34.03;99625.30;108034;1254;61860;-68
2023/06/02 00:19:12;;;;;;;13.50;7.30;;;;;;;24.33;34.04;99629.01;108126;1253;60379;-68
2023/06/02 00:21:41;;;;;;;11.70;6.70;;;;;;;24.24;34.11;99628.65;108076;1254;73827;-69
2023/06/02 00:24:08;;;;;;;15.20;7.70;;;;;;;24.30;33.95;99627.64;108098;1253;70009;-68
2023/06/02 00:26:36;;;;;;;12.00;7.00;;;;;;;24.10;34.29;99633.83;108051;1254;71448;-68
2023/06/02 00:29:04;;;;;;;17.60;8.10;;;;;;;23.88;34.61;99633.13;108026;1254;62162;-67
2023/06/02 00:31:31;;;;;;;15.60;7.60;;;;;;;23.86;34.62;99628.35;108036;1257;60065;-67
2023/06/02 00:33:58;;;;;;;16.00;7.70;;;;;;;23.91;34.48;99629.97;108003;1254;72367;-66
2023/06/02 00:36:26;;;;;;;14.70;8.40;;;;;;;23.85;34.74;99624.88;108030;1254;68710;-67
2023/06/02 00:38:53;;;;;;;15.10;7.30;;;;;;;23.99;34.60;99626.67;108089;1257;72633;-68
2023/06/02 00:41:21;;;;;;;12.10;7.20;;;;;;;24.09;34.53;99623.70;108185;1254;61067;-68
2023/06/02 00:43:48;;;;;;;12.70;7.80;;;;;;;24.00;34.61;99619.41;108180;1254;60514;-66
2023/06/02 00:46:16;;;;;;;13.50;7.20;;;;;;;23.82;34.89;99620.70;108189;1254;73820;-65
2023/06/02 00:48:43;;;;;;;17.30;7.60;;;;;;;23.98;34.66;99614.02;108139;1252;70124;-66
2023/06/02 00:51:10;;;;;;;14.60;6.80;;;;;;;23.99;34.63;99615.78;108194;1253;72663;-67
2023/06/02 00:53:38;;;;;;;24.50;7.80;;;;;;;23.91;34.76;99614.74;108160;1254;60512;-67
2023/06/02 00:56:05;;;;;;;12.40;7.10;;;;;;;23.70;34.95;99621.71;108164;1253;60268;-65
2023/06/02 00:58:37;;;;;;;12.80;6.90;;;;;;;23.63;35.17;99618.70;108097;1254;74124;-65
2023/06/02 01:01:08;;;;;;;16.10;8.00;;;;;;;23.87;34.78;99618.80;108143;1253;70407;-66
2023/06/02 01:03:37;;;;;;;;;;;;;;;23.81;34.77;99614.29;108077;1254;71791;-67
2023/06/02 01:06:05;;;;;;;12.10;6.80;;;;;;;23.81;34.90;99617.27;108158;1253;61706;-67
2023/06/02 01:08:34;;;;;;;14.10;7.50;;;;;;;23.71;34.99;99614.41;108095;1254;60256;-67
2023/06/02 01:11:02;;;;;;;16.30;8.10;;;;;;;23.73;35.00;99613.87;108331;1254;73927;-67
2023/06/02 01:13:29;;;;;;;14.80;7.20;;;;;;;23.69;34.94;99612.67;108082;1254;72270;-68
2023/06/02 01:15:57;;;;;;;20.00;7.70;;;;;;;23.72;34.84;99611.13;108169;1253;71949;-68
2023/06/02 01:18:29;;;;;;;15.40;6.90;;;;;;;23.59;35.06;99610.55;108177;1253;61612;-68
2023/06/02 01:21:01;;;;;;;12.90;6.60;;;;;;;23.43;35.37;99612.03;108123;1253;60329;-67
2023/06/02 01:23:33;;;;;;;16.80;7.20;;;;;;;23.63;35.02;99609.88;108092;1253;74547;-66
2023/06/02 01:26:08;;;;;;;12.30;7.00;;;;;;;23.69;34.78;99609.05;108113;1254;69959;-66
2023/06/02 01:28:37;;;;;;;14.40;7.20;;;;;;;23.67;34.88;99608.92;108107;1254;72690;-66
2023/06/02 01:31:15;;;;;;;16.00;7.60;;;;;;;23.75;34.85;99610.52;108051;1255;60600;-67
2023/06/02 01:33:57;;;;;;;15.50;7.10;;;;;;;23.66;35.00;99609.00;108121;1254;60329;-66
2023/06/02 01:36:25;;;;;;;12.40;6.80;;;;;;;23.60;35.05;99607.67;108043;1253;73890;-66
2023/06/02 01:38:53;;;;;;;12.50;7.10;;;;;;;23.44;35.44;99609.25;108000;1254;69451;-66
2023/06/02 01:41:20;;;;;;;17.90;7.60;;;;;;;23.54;35.38;99602.67;107962;1257;71729;-66
2023/06/02 01:43:47;;;;;;;13.70;7.70;;;;;;;23.58;35.10;99603.56;108016;1254;64026;-65
2023/06/02 01:46:16;;;;;;;13.70;6.70;;;;;;;23.57;35.15;99609.02;107961;1254;60391;-67
2023/06/02 01:48:43;;;;;;;34.40;7.60;;;;;;;23.53;35.19;99611.70;107823;1253;72612;-65
2023/06/02 01:51:10;;;;;;;19.00;6.90;;;;;;;23.54;35.27;99614.16;107945;1254;69906;-65
2023/06/02 01:53:38;;;;;;;12.70;7.00;;;;;;;23.41;35.39;99611.17;107923;1260;72468;-65
2023/06/02 01:56:05;;;;;;;12.00;7.20;;;;;;;23.32;35.61;99612.61;108047;1254;60378;-66
2023/06/02 01:58:33;;;;;;;17.70;7.10;;;;;;;23.18;35.86;99613.97;108117;1253;62111;-67
2023/06/02 02:01:00;;;;;;;11.10;6.90;;;;;;;23.38;35.51;99613.04;108107;1254;72541;-64
2023/06/02 02:03:32;;;;;;;12.80;7.70;;;;;;;23.46;35.49;99609.44;108125;1254;68851;-67
2023/06/02 02:06:02;;;;;;;10.40;6.70;;;;;;;23.38;35.79;99608.95;108098;1254;72409;-66
2023/06/02 02:08:30;;;;;;;14.80;7.30;;;;;;;23.34;35.73;99608.48;108191;1254;61757;-66
2023/06/02 02:10:57;;;;;;;14.90;7.80;;;;;;;23.33;35.74;99609.59;108108;1253;60007;-66
2023/06/02 02:13:24;;;;;;;13.00;6.60;;;;;;;23.44;35.60;99608.65;108091;1254;74804;-67
2023/06/02 02:15:52;;;;;;;16.50;7.60;;;;;;;23.33;35.69;99609.08;108098;1254;68910;-66
2023/06/02 02:18:20;;;;;;;15.60;7.10;;;;;;;23.35;35.82;99611.95;108273;1254;71777;-66
2023/06/02 02:20:48;;;;;;;13.50;7.80;;;;;;;23.26;35.95;99608.49;108115;1254;61249;-66
2023/06/02 02:23:15;;;;;;;14.70;7.70;;;;;;;23.25;35.93;99606.23;108052;1253;59581;-67
2023/06/02 02:25:42;;;;;;;15.50;7.10;;;;;;;23.18;36.17;99600.48;108191;1254;73779;-67
2023/06/02 02:28:10;;;;;;;18.80;8.20;;;;;;;23.30;36.01;99605.02;108151;1258;68834;-67
2023/06/02 02:30:37;;;;;;;16.50;7.10;;;;;;;23.46;35.81;99606.02;108181;1254;72401;-67
2023/06/02 02:33:05;;;;;;;18.00;7.40;;;;;;;23.56;35.81;99605.55;108047;1253;61736;-66
2023/06/02 02:35:32;;;;;;;19.50;9.20;;;;;;;23.43;35.88;99604.74;108139;1254;59965;-67
2023/06/02 02:38:00;;;;;;;12.20;7.90;;;;;;;23.60;35.64;99605.62;108060;1254;74357;-65
2023/06/02 02:40:27;;;;;;;20.70;8.50;;;;;;;23.80;35.42;99606.92;108058;1254;69641;-66
2023/06/02 02:42:55;;;;;;;15.20;7.80;;;;;;;23.93;35.25;99607.42;108095;1254;72688;-66
2023/06/02 02:45:23;;;;;;;15.60;7.10;;;;;;;24.27;34.91;99605.42;108130;1254;61771;-66
2023/06/02 02:47:51;;;;;;;20.10;7.60;;;;;;;24.15;35.03;99603.55;108224;1254;60510;-66
2023/06/02 02:50:18;;;;;;;16.50;7.30;;;;;;;24.11;35.24;99601.96;108241;1254;72571;-67
2023/06/02 02:52:45;;;;;;;16.40;9.00;;;;;;;24.31;35.09;99601.08;108131;1254;70385;-67
2023/06/02 02:55:13;;;;;;;16.30;7.10;;;;;;;24.31;35.07;99601.26;108120;1254;70982;-66
2023/06/02 02:57:40;;;;;;;12.30;7.60;;;;;;;24.19;35.13;99601.00;108072;1254;61623;-66
2023/06/02 03:00:09;;;;;;;22.50;8.00;;;;;;;24.35;34.90;99598.59;108117;1254;60235;-66
2023/06/02 03:02:37;;;;;;;13.50;6.90;;;;;;;24.38;34.83;99598.38;108026;1254;73109;-67
2023/06/02 03:05:06;;;;;;;12.50;6.70;;;;;;;24.74;34.35;99595.34;108013;1253;70574;-67
2023/06/02 03:07:39;;;;;;;18.00;7.30;;;;;;;24.89;34.11;99600.63;108124;1254;72734;-66
2023/06/02 03:10:07;;;;;;;13.30;7.00;;;;;;;24.96;34.10;99592.07;108161;1253;60466;-67
2023/06/02 03:12:35;;;;;;;14.20;6.40;;;;;;;25.20;33.58;99595.73;108111;1253;59069;-66
2023/06/02 03:15:04;;;;;;;14.30;6.70;;;;;;;25.18;33.59;99595.70;108076;1253;72822;-67
2023/06/02 03:17:32;;;;;;;17.30;6.10;;;;;;;25.33;33.40;99595.38;108078;1254;70572;-69
2023/06/02 03:20:00;;;;;;;18.20;6.80;;;;;;;25.70;32.99;99593.41;108053;1254;71464;-66
2023/06/02 03:22:29;;;;;;;15.30;6.40;;;;;;;26.00;32.75;99593.55;108032;1258;60737;-67
2023/06/02 03:24:57;;;;;;;13.90;6.70;;;;;;;26.12;32.49;99587.73;108077;1253;60357;-66
2023/06/02 03:27:25;;;;;;;19.00;7.00;;;;;;;26.45;32.08;99586.36;108071;1258;73957;-67
2023/06/02 03:29:54;;;;;;;14.90;6.10;;;;;;;26.59;31.85;99588.02;108158;1254;69545;-67
2023/06/02 03:32:25;;;;;;;13.10;6.70;;;;;;;26.86;31.47;99587.00;107946;1254;72692;-68
2023/06/02 03:34:52;;;;;;;15.20;6.20;;;;;;;26.94;31.34;99585.84;107962;1257;62082;-66
2023/06/02 03:37:20;;;;;;;15.50;6.30;;;;;;;26.97;31.21;99580.70;108143;1254;60290;-67
2023/06/02 03:39:47;;;;;;;12.20;5.80;;;;;;;27.03;31.05;99584.48;108098;1254;74127;-68
2023/06/02 03:42:15;;;;;;;16.00;5.60;;;;;;;27.11;31.14;99585.57;108065;1254;69217;-67
2023/06/02 03:44:43;;;;;;;14.30;5.70;;;;;;;27.24;30.96;99587.10;108093;1254;72450;-67
2023/06/02 03:47:10;;;;;;;13.40;5.70;;;;;;;27.53;30.43;99586.15;108006;1254;60495;-68
2023/06/02 03:49:38;;;;;;;13.80;6.20;;;;;;;27.61;30.38;99581.94;108160;1254;60328;-68
2023/06/02 03:52:05;;;;;;;11.70;5.80;;;;;;;27.62;30.37;99581.86;108087;1258;73666;-67
2023/06/02 03:54:33;;;;;;;11.00;6.40;;;;;;;27.52;30.21;99582.23;108118;1254;70005;-67
2023/06/02 03:57:01;;;;;;;11.90;5.30;;;;;;;27.90;30.19;99585.46;108177;1254;71377;-67
2023/06/02 03:59:30;;;;;;;19.10;6.00;;;;;;;28.07;29.82;99586.63;108053;1259;60424;-67
2023/06/02 04:01:58;;;;;;;10.00;5.60;;;;;;;27.85;29.85;99584.87;108069;1253;60025;-67
2023/06/02 04:04:25;;;;;;;14.70;5.20;;;;;;;28.21;29.43;99583.11;108061;1254;74210;-67
2023/06/02 04:06:53;;;;;;;14.70;5.50;;;;;;;28.46;29.09;99582.86;108175;1256;69315;-67
2023/06/02 04:09:20;;;;;;;10.70;5.50;;;;;;;28.52;28.87;99584.55;108165;1253;72511;-67
2023/06/02 04:11:48;;;;;;;14.10;5.50;;;;;;;28.70;28.71;99580.92;108185;1253;60296;-67
2023/06/02 04:14:16;;;;;;;9.20;5.00;;;;;;;28.80;28.68;99581.48;108058;1253;60277;-66
2023/06/02 04:16:47;;;;;;;19.00;5.80;;;;;;;28.58;29.08;99576.14;108039;1258;74271;-66
2023/06/02 04:19:14;;;;;;;9.20;4.60;;;;;;;28.73;28.72;99573.09;108034;1254;69611;-68
2023/06/02 04:21:42;;;;;;;13.60;5.10;;;;;;;29.29;27.99;99575.06;108139;1253;72661;-66
2023/06/02 04:24:10;;;;;;;12.70;4.70;;;;;;;29.57;27.33;99569.13;108174;1255;60122;-67
2023/06/02 04:26:38;;;;;;;14.60;4.60;;;;;;;29.36;27.59;99571.84;108104;1253;60470;-68
2023/06/02 04:29:05;;;;;;;13.30;5.20;;;;;;;29.83;26.74;99567.91;108143;1254;74043;-68
2023/06/02 04:31:41;;;;;;;10.60;4.50;;;;;;;30.15;26.31;99568.37;108138;1252;69733;-66
2023/06/02 04:34:10;;;;;;;11.30;4.10;;;;;;;29.93;26.41;99562.71;108093;1254;71395;-68
2023/06/02 04:36:38;;;;;;;12.30;4.50;;;;;;;30.03;26.35;99561.92;108001;1254;60968;-68
2023/06/02 04:39:07;;;;;;;8.10;4.20;;;;;;;30.17;26.32;99559.04;108173;1254;60418;-67
2023/06/02 04:41:36;;;;;;;6.30;4.00;;;;;;;30.52;26.27;99554.35;108130;1255;73846;-68
2023/06/02 04:44:04;;;;;;;10.10;4.10;;;;;;;30.99;25.55;99558.22;107956;1254;68832;-68
2023/06/02 04:46:31;;;;;;;9.00;4.30;;;;;;;31.26;25.02;99554.94;108161;1256;72717;-69
2023/06/02 04:49:07;;;;;;;11.80;3.70;;;;;;;31.47;24.81;99555.96;108142;1253;60431;-67
2023/06/02 04:51:35;;;;;;;14.40;4.40;;;;;;;31.40;24.91;99553.27;108046;1254;60504;-68
2023/06/02 04:54:03;;;;;;;11.10;3.40;;;;;;;31.50;24.64;99554.88;108043;1254;73788;-69
2023/06/02 04:56:32;;;;;;;7.50;4.00;;;;;;;31.87;24.42;99557.52;108012;1255;68849;-68
2023/06/02 04:59:00;;;;;;;12.50;4.40;;;;;;;32.23;23.97;99551.27;108054;1254;71377;-68
2023/06/02 05:03:32;;;;;;;15.10;4.60;;;;;;;30.30;26.17;99559.80;105902;1284;600979;-67
2023/06/02 05:06:00;;;;;;;11.70;4.80;;;;;;;31.97;24.53;99552.33;108153;1254;60066;-67
2023/06/02 05:08:28;;;;;;;12.60;4.30;;;;;;;32.44;23.68;99547.71;108166;1254;60014;-68
2023/06/02 05:10:55;;;;;;;12.80;4.30;;;;;;;32.33;23.74;99544.47;107997;1254;72217;-68
2023/06/02 05:13:23;;;;;;;12.50;4.40;;;;;;;32.45;23.63;99545.88;108058;1256;70561;-68
2023/06/02 05:15:50;;;;;;;12.80;3.90;;;;;;;32.71;23.30;99547.27;107961;1259;72677;-69
2023/06/02 05:18:18;;;;;;;8.30;3.60;;;;;;;33.04;23.19;99546.61;107953;1259;264218;-67
2023/06/02 05:20:46;;;;;;;13.10;3.80;;;;;;;33.32;22.86;99545.80;108247;1251;60005;-68
2023/06/02 05:23:14;;;;;;;9.60;3.90;;;;;;;33.52;22.65;99545.88;108257;1251;70410;-69
2023/06/02 05:25:42;;;;;;;8.10;3.90;;;;;;;33.93;22.30;99546.85;108360;1256;70201;-68
2023/06/02 05:28:09;;;;;;;11.20;3.50;;;;;;;34.42;21.92;99544.39;108205;1255;63675;-68
2023/06/02 05:30:36;;;;;;;15.90;3.90;;;;;;;34.76;21.51;99542.21;108206;1251;59542;-69
2023/06/02 05:33:05;;;;;;;7.80;3.50;;;;;;;34.85;21.20;99541.51;108224;1256;59497;-68
2023/06/02 05:35:32;;;;;;;8.80;3.70;;;;;;;35.13;21.07;99540.02;108211;1252;62890;-69
2023/06/02 05:38:00;;;;;;;8.70;3.40;;;;;;;35.10;20.57;99540.52;108217;1251;61377;-68
2023/06/02 05:40:28;;;;;;;6.10;3.40;;;;;;;34.88;20.57;99540.35;108196;1251;62419;-68
2023/06/02 05:42:55;;;;;;;13.90;3.50;;;;;;;35.04;20.48;99544.59;108164;1256;59538;-68
2023/06/02 05:45:23;;;;;;;9.60;3.80;;;;;;;35.23;20.15;99541.95;108194;1251;59366;-69
2023/06/02 05:47:51;;;;;;;11.90;3.40;;;;;;;35.56;20.04;99541.60;108216;1251;64121;-68
2023/06/02 05:50:19;;;;;;;23.80;4.40;;;;;;;35.37;20.15;99541.10;108174;1257;61360;-67
2023/06/02 05:52:47;;;;;;;24.90;4.40;;;;;;;35.02;20.72;99541.01;108232;1256;63866;-69
2023/06/02 05:55:15;;;;;;;12.00;3.00;;;;;;;35.01;20.35;99537.60;108213;1251;59584;-68
2023/06/02 05:57:42;;;;;;;6.00;3.40;;;;;;;35.14;20.15;99536.93;108260;1251;59547;-67
2023/06/02 06:00:11;;;;;;;17.20;4.40;;;;;;;35.41;19.88;99533.05;108204;1253;64130;-69
2023/06/02 06:02:41;;;;;;;;;;;;;;;35.81;19.65;99531.55;108268;1257;60142;-68
2023/06/02 06:05:11;;;;;;;8.20;3.20;;;;;;;35.80;19.31;99533.47;108168;1251;63741;-68
2023/06/02 06:07:39;;;;;;;13.20;3.30;;;;;;;35.78;19.32;99534.67;108230;1251;59126;-69
2023/06/02 06:10:07;;;;;;;11.70;3.90;;;;;;;35.65;19.32;99533.46;108164;1251;59212;-68
2023/06/02 06:12:35;;;;;;;11.00;3.50;;;;;;;35.52;19.50;99535.33;108202;1251;71845;-68
2023/06/02 06:15:02;;;;;;;12.60;3.60;;;;;;;35.87;19.49;99530.23;108114;1256;69967;-69
2023/06/02 06:17:30;;;;;;;7.00;3.20;;;;;;;35.96;19.39;99531.44;108297;1255;62470;-68
2023/06/02 06:19:57;;;;;;;12.60;3.50;;;;;;;36.34;19.07;99532.27;108356;1252;59444;-68
2023/06/02 06:22:25;;;;;;;6.60;3.50;;;;;;;36.61;18.87;99527.55;108236;1251;59826;-69
2023/06/02 06:24:52;;;;;;;7.80;3.30;;;;;;;36.72;18.98;99529.45;108233;1251;64213;-68
2023/06/02 06:27:20;;;;;;;10.60;3.30;;;;;;;36.91;18.84;99523.30;108211;1254;61413;-69
2023/06/02 06:29:50;;;;;;;9.90;3.10;;;;;;;36.75;18.62;99522.20;108100;1257;63742;-68
2023/06/02 06:32:17;;;;;;;17.60;3.70;;;;;;;36.77;18.81;99523.36;108100;1254;59625;-69
2023/06/02 06:34:45;;;;;;;12.30;3.30;;;;;;;37.12;18.35;99523.72;108241;1254;59130;-68
2023/06/02 06:37:12;;;;;;;16.10;3.90;;;;;;;36.93;18.46;99522.91;108135;1259;64167;-68
2023/06/02 06:39:40;;;;;;;11.40;3.30;;;;;;;37.09;18.43;99519.38;108121;1253;61490;-69
2023/06/02 06:42:07;;;;;;;6.60;3.30;;;;;;;36.96;18.33;99522.73;108095;1254;63695;-68
2023/06/02 06:44:41;;;;;;;18.00;3.80;;;;;;;36.85;18.54;99522.30;108157;1256;60138;-68
2023/06/02 06:47:09;;;;;;;8.90;3.60;;;;;;;37.19;18.49;99523.30;108051;1254;59740;-69
2023/06/02 06:49:36;;;;;;;11.80;3.00;;;;;;;36.97;18.21;99521.61;108072;1255;64165;-67
2023/06/02 06:52:04;;;;;;;13.30;3.20;;;;;;;36.68;18.21;99520.15;108181;1256;61352;-68
2023/06/02 06:54:31;;;;;;;12.00;3.30;;;;;;;37.12;18.01;99517.45;108055;1252;63721;-69
2023/06/02 06:56:59;;;;;;;7.20;2.90;;;;;;;37.79;17.62;99517.73;108136;1254;59465;-69
2023/06/02 06:59:26;;;;;;;14.50;3.70;;;;;;;38.43;17.15;99516.98;108078;1255;59477;-68
2023/06/02 07:01:54;;;;;;;9.10;3.20;;;;;;;38.68;17.04;99519.91;108132;1255;64161;-68
2023/06/02 07:04:21;;;;;;;13.80;3.70;;;;;;;38.52;17.07;99521.95;108142;1254;60095;-68
2023/06/02 07:06:48;;;;;;;7.90;2.90;;;;;;;37.68;17.57;99523.04;108146;1257;63748;-69
2023/06/02 07:09:16;;;;;;;11.60;3.60;;;;;;;37.51;18.01;99519.49;108118;1255;59439;-69
2023/06/02 07:11:43;;;;;;;14.60;3.70;;;;;;;37.86;17.82;99526.13;108175;1257;59138;-69
2023/06/02 07:14:10;;;;;;;7.30;3.50;;;;;;;37.95;17.42;99527.38;108150;1257;62827;-69
2023/06/02 07:16:46;;;;;;;6.60;2.60;;;;;;;37.77;16.92;99528.23;108201;1254;61681;-69
2023/06/02 07:19:14;;;;;;;18.80;4.10;;;;;;;37.26;17.62;99523.50;108162;1253;63712;-69
2023/06/02 07:21:42;;;;;;;12.80;3.50;;;;;;;36.96;17.94;99523.42;108199;1254;59724;-69
2023/06/02 07:24:09;;;;;;;8.40;3.00;;;;;;;37.06;17.84;99518.90;108203;1257;59700;-66
2023/06/02 07:26:36;;;;;;;15.80;3.90;;;;;;;37.38;17.89;99513.27;108180;1254;62867;-68
2023/06/02 07:29:04;;;;;;;8.50;3.10;;;;;;;37.90;17.53;99511.30;108122;1254;61397;-68
2023/06/02 07:31:31;;;;;;;17.50;3.70;;;;;;;37.66;17.81;99510.64;108065;1254;62495;-68
2023/06/02 07:33:59;;;;;;;21.50;4.00;;;;;;;36.92;18.62;99507.13;108053;1252;59528;-68
2023/06/02 07:36:26;;;;;;;8.30;3.10;;;;;;;37.36;17.99;99512.47;108018;1252;59513;-68
2023/06/02 07:38:53;;;;;;;16.00;3.70;;;;;;;37.75;17.15;99511.69;108126;1253;64475;-68
2023/06/02 07:41:21;;;;;;;8.10;3.20;;;;;;;38.18;16.94;99507.18;108205;1254;61451;-69
2023/06/02 07:43:50;;;;;;;4.80;2.70;;;;;;;38.30;16.99;99505.86;108079;1255;62419;-68
2023/06/02 07:46:17;;;;;;;9.40;2.80;;;;;;;38.48;16.52;99513.76;108044;1254;59618;-68
2023/06/02 07:48:45;;;;;;;12.80;3.30;;;;;;;38.37;16.52;99504.82;108091;1254;59648;-69
2023/06/02 07:51:12;;;;;;;13.10;3.50;;;;;;;37.94;16.98;99508.02;108176;1255;64103;-69
2023/06/02 07:53:40;;;;;;;7.00;3.30;;;;;;;38.39;16.78;99502.41;108201;1252;61375;-68
2023/06/02 07:56:07;;;;;;;10.00;3.10;;;;;;;38.90;16.52;99496.35;108247;1254;63689;-69
2023/06/02 07:58:35;;;;;;;10.30;3.10;;;;;;;39.23;16.51;99496.70;108168;1254;59510;-69
2023/06/02 08:01:03;;;;;;;12.30;2.90;;;;;;;39.60;16.01;99495.66;108091;1255;59525;-68
2023/06/02 08:03:31;;;;;;;11.80;3.30;;;;;;;39.50;15.84;99494.48;108206;1252;64575;-69
2023/06/02 08:05:58;;;;;;;11.00;2.90;;;;;;;39.27;16.11;99490.84;108079;1253;60462;-69
2023/06/02 08:08:25;;;;;;;16.40;3.70;;;;;;;39.15;16.11;99493.77;108177;1254;63881;-68
2023/06/02 08:10:56;;;;;;;12.40;3.30;;;;;;;39.02;15.81;99497.27;108171;1254;59538;-69
2023/06/02 08:13:25;;;;;;;22.40;3.80;;;;;;;39.31;15.29;99495.95;108166;1254;59778;-69
2023/06/02 08:15:53;;;;;;;23.80;3.80;;;;;;;39.25;15.37;99500.00;108163;1256;63003;-69
2023/06/02 08:18:40;;;;;;;11.60;3.20;;;;;;;38.95;15.43;99498.11;108224;1254;61373;-69
2023/06/02 08:21:08;;;;;;;7.80;2.90;;;;;;;38.91;15.55;99495.20;108211;1257;63751;-69
2023/06/02 08:23:37;;;;;;;15.80;4.10;;;;;;;39.33;15.17;99491.68;108224;1253;59493;-69
2023/06/02 08:26:04;;;;;;;11.10;3.10;;;;;;;39.55;14.79;99488.25;108245;1254;59733;-68
2023/06/02 08:28:33;;;;;;;7.80;3.50;;;;;;;39.53;14.72;99488.94;108091;1254;62901;-69
2023/06/02 08:31:01;;;;;;;11.60;3.10;;;;;;;38.99;14.86;99494.32;108088;1254;61537;-69
2023/06/02 08:33:33;;;;;;;11.90;3.30;;;;;;;38.72;15.29;99492.23;108019;1254;63906;-69
2023/06/02 08:36:01;;;;;;;9.60;2.70;;;;;;;39.19;14.46;99491.97;108030;1258;59512;-69
2023/06/02 08:38:29;;;;;;;8.70;3.00;;;;;;;39.02;14.08;99484.33;108044;1254;59506;-69
2023/06/02 08:40:57;;;;;;;11.50;3.10;;;;;;;38.74;14.47;99488.13;108043;1254;64162;-69
2023/06/02 08:43:25;;;;;;;7.20;3.20;;;;;;;38.82;14.27;99482.27;108002;1257;61453;-69
2023/06/02 08:45:52;;;;;;;18.80;3.50;;;;;;;38.44;14.34;99478.55;108063;1254;63731;-69
2023/06/02 08:48:20;;;;;;;5.00;2.60;;;;;;;38.69;14.13;99477.54;108112;1254;59562;-70
2023/06/02 08:50:48;;;;;;;18.70;3.20;;;;;;;39.18;14.21;99480.79;108057;1253;59084;-70
2023/06/02 08:53:23;;;;;;;16.50;3.00;;;;;;;39.70;14.13;99480.98;108160;1253;62837;-69
2023/06/02 08:55:50;;;;;;;8.30;2.80;;;;;;;39.90;14.02;99483.90;108125;1257;60287;-69
2023/06/02 08:58:17;;;;;;;40.90;4.80;;;;;;;39.44;14.09;99480.52;108066;1254;64170;-69
2023/06/02 09:00:45;;;;;;;12.70;2.70;;;;;;;39.07;14.19;99481.13;108112;1253;59513;-69
2023/06/02 09:03:13;;;;;;;10.50;2.70;;;;;;;39.41;14.00;99487.12;108047;1253;59737;-70
2023/06/02 09:06:00;;;;;;;8.60;3.00;;;;;;;40.41;13.33;99477.55;108024;1258;62944;-69
2023/06/02 09:08:29;;;;;;;5.80;2.50;;;;;;;41.24;12.95;99466.85;108013;1254;63299;-70
2023/06/02 09:10:56;;;;;;;9.90;2.60;;;;;;;41.93;12.74;99466.13;108089;1254;64067;-70
2023/06/02 09:13:29;;;;;;;12.00;3.20;;;;;;;42.25;12.14;99471.96;108165;1254;59167;-70
2023/06/02 09:16:01;;;;;;;6.10;2.60;;;;;;;42.27;12.18;99469.71;108126;1254;60310;-69
2023/06/02 09:18:29;;;;;;;8.40;2.20;;;;;;;42.08;12.04;99471.08;108039;1254;73525;-69
2023/06/02 09:20:59;;;;;;;7.10;2.30;;;;;;;41.30;12.09;99469.40;108050;1254;60313;-69
2023/06/02 09:23:42;;;;;;;7.80;2.70;;;;;;;41.12;12.47;99465.34;108126;1254;63777;-69
2023/06/02 09:26:21;;;;;;;10.60;2.80;;;;;;;40.77;12.60;99461.66;108155;1254;60335;-69
2023/06/02 09:29:05;;;;;;;13.40;3.20;;;;;;;40.21;12.89;99453.36;108222;1254;60456;-69
2023/06/02 09:31:48;;;;;;;11.80;2.80;;;;;;;39.88;13.25;99453.95;108223;1254;65936;-69
2023/06/02 09:34:16;;;;;;;6.20;2.60;;;;;;;39.61;13.47;99452.70;108199;1254;61884;-69
2023/06/02 09:36:49;;;;;;;12.10;3.20;;;;;;;39.69;13.51;99447.04;108259;1254;63719;-69
2023/06/02 09:39:43;;;;;;;8.00;2.60;;;;;;;40.49;13.18;99437.10;108176;1254;60405;-68
2023/06/02 09:42:14;;;;;;;9.30;2.80;;;;;;;41.34;12.64;99444.66;108191;1254;59170;-69
2023/06/02 09:45:01;;;;;;;10.70;2.60;;;;;;;41.70;12.22;99450.80;108201;1254;63684;-69
2023/06/02 09:47:28;;;;;;;7.10;2.50;;;;;;;42.15;12.04;99450.42;108162;1254;61444;-69
2023/06/02 09:49:56;;;;;;;9.70;2.50;;;;;;;42.36;11.23;99444.77;108197;1254;63764;-69
2023/06/02 09:52:23;;;;;;;10.40;2.60;;;;;;;42.71;11.07;99440.62;108179;1253;60345;-70
2023/06/02 09:54:50;;;;;;;9.90;2.50;;;;;;;42.27;11.44;99445.03;108196;1254;60307;-69
2023/06/02 09:57:18;;;;;;;7.50;2.80;;;;;;;41.71;11.09;99434.73;108123;1253;65009;-69
2023/06/02 09:59:45;;;;;;;7.30;2.50;;;;;;;41.62;11.31;99424.75;108183;1253;61375;-68
2023/06/02 10:02:13;;;;;;;9.30;2.60;;;;;;;42.14;11.16;99430.33;108132;1253;63791;-69
2023/06/02 10:04:40;;;;;;;9.20;2.80;;;;;;;43.46;10.62;99424.11;108106;1257;60368;-69
2023/06/02 10:07:32;;;;;;;10.80;2.80;;;;;;;43.72;10.41;99427.36;108179;1253;60388;-65
2023/06/02 10:10:21;;;;;;;7.70;2.80;;;;;;;43.21;10.65;99427.42;108189;1254;64930;-69
2023/06/02 10:12:54;;;;;;;7.10;2.50;;;;;;;42.74;10.99;99423.54;108128;1254;70294;-68
2023/06/02 10:15:42;;;;;;;10.70;2.60;;;;;;;42.45;11.31;99419.84;108158;1254;62694;-69
2023/06/02 10:18:22;;;;;;;6.10;2.60;;;;;;;42.63;11.08;99411.44;108218;1253;59128;-68
2023/06/02 10:21:19;;;;;;;9.30;2.40;;;;;;;42.96;10.92;99411.67;108196;1256;60610;-67
2023/06/02 10:23:56;;;;;;;8.20;2.40;;;;;;;42.77;10.82;99420.43;108199;1254;65334;-69
2023/06/02 10:26:36;;;;;;;8.80;2.80;;;;;;;42.27;11.29;99422.66;108112;1253;61479;-69
2023/06/02 10:29:04;;;;;;;7.00;3.00;;;;;;;42.38;11.22;99420.48;108085;1254;63883;-69
2023/06/02 10:31:31;;;;;;;9.30;2.30;;;;;;;42.52;11.43;99413.87;108076;1253;60233;-69
2023/06/02 10:34:00;;;;;;;7.20;2.30;;;;;;;42.12;11.56;99406.46;108106;1253;60399;-68
2023/06/02 10:36:48;;;;;;;11.00;3.00;;;;;;;41.69;11.70;99414.90;108097;1254;64990;-70
2023/06/02 10:39:39;;;;;;;8.10;2.20;;;;;;;41.42;12.09;99413.66;108115;1254;60235;-69
2023/06/02 10:42:07;;;;;;;9.10;2.80;;;;;;;41.11;12.29;99414.30;108010;1254;62778;-69
2023/06/02 10:44:34;;;;;;;7.90;2.70;;;;;;;41.30;12.31;99412.61;108050;1254;60385;-69
2023/06/02 10:47:31;;;;;;;7.30;2.40;;;;;;;41.66;12.12;99405.02;108043;1257;60434;-70
2023/06/02 10:50:06;;;;;;;6.00;2.80;;;;;;;42.25;11.92;99397.61;107978;1254;64943;-68
2023/06/02 10:53:03;;;;;;;9.50;2.60;;;;;;;42.81;11.60;99391.83;108099;1254;61553;-69
2023/06/02 10:55:31;;;;;;;8.00;2.70;;;;;;;42.84;11.45;99384.67;108053;1253;63753;-70
2023/06/02 10:58:03;;;;;;;10.80;3.00;;;;;;;42.02;11.90;99395.98;108133;1257;60548;-70
2023/06/02 11:00:39;;;;;;;7.50;2.90;;;;;;;41.64;12.20;99396.20;108093;1254;60300;-69
2023/06/02 11:03:16;;;;;;;9.90;2.90;;;;;;;41.59;12.16;99402.81;108066;1254;64862;-69
2023/06/02 11:05:49;;;;;;;11.30;3.40;;;;;;;41.70;12.00;99402.73;108026;1253;60181;-67
2023/06/02 11:08:23;;;;;;;8.30;3.00;;;;;;;41.74;12.16;99389.85;108066;1253;63778;-68
2023/06/02 11:10:54;;;;;;;13.50;3.40;;;;;;;41.96;12.04;99389.52;108036;1254;60655;-68
2023/06/02 11:13:22;;;;;;;4.30;2.70;;;;;;;42.36;12.06;99381.80;108085;1252;60425;-68
2023/06/02 11:15:59;;;;;;;10.80;2.80;;;;;;;42.65;11.73;99375.05;108073;1254;65357;-68
2023/06/02 11:18:33;;;;;;;6.40;2.60;;;;;;;42.87;11.59;99373.08;108088;1254;61675;-68
2023/06/02 11:21:17;;;;;;;8.20;2.80;;;;;;;42.92;11.52;99371.11;107978;1254;62485;-68
2023/06/02 11:23:45;;;;;;;7.40;2.70;;;;;;;43.17;11.57;99369.36;108051;1258;60407;-69
2023/06/02 11:26:17;;;;;;;4.00;2.60;;;;;;;43.28;11.22;99370.73;108082;1254;59259;-68
2023/06/02 11:28:44;;;;;;;10.20;2.90;;;;;;;42.94;11.50;99369.61;108123;1252;63686;-69
2023/06/02 11:31:17;;;;;;;6.90;3.40;;;;;;;42.69;11.62;99359.41;108126;1254;60092;-69
2023/06/02 11:33:48;;;;;;;9.50;2.70;;;;;;;42.17;11.91;99357.61;108108;1254;63883;-68